createdAt,value
2023-02-12T00:01:28.804Z,14.70
2023-02-12T00:03:57.597Z,14.90
2023-02-12T00:06:26.136Z,14.50
2023-02-12T00:08:55.928Z,14.30
2023-02-12T00:11:26.275Z,13.60
2023-02-12T00:13:54.949Z,13.60
2023-02-12T00:16:25.804Z,13.90
2023-02-12T00:18:57.649Z,13.80
2023-02-12T00:21:26.620Z,14.30
2023-02-12T00:23:55.206Z,14.30
2023-02-12T00:26:23.864Z,14.70
2023-02-12T00:28:53.452Z,14.40
2023-02-12T00:31:23.844Z,15.00
2023-02-12T00:33:52.252Z,15.20
2023-02-12T00:36:26.006Z,15.10
2023-02-12T00:38:56.538Z,14.50
2023-02-12T00:41:27.171Z,14.10
2023-02-12T00:43:56.379Z,13.80
2023-02-12T00:46:27.053Z,14.30
2023-02-12T00:48:55.252Z,14.30
2023-02-12T00:51:24.815Z,14.60
2023-02-12T00:53:56.094Z,14.20
2023-02-12T00:56:24.361Z,14.00
2023-02-12T00:58:52.530Z,13.70
2023-02-12T01:01:20.819Z,13.30
2023-02-12T01:03:49.281Z,13.50
2023-02-12T01:06:17.465Z,13.40
2023-02-12T01:08:51.669Z,14.20
2023-02-12T01:11:20.805Z,14.20
2023-02-12T01:13:50.080Z,13.90
2023-02-12T01:16:20.401Z,13.80
2023-02-12T01:18:49.051Z,14.10
2023-02-12T01:21:19.043Z,14.70
2023-02-12T01:23:49.519Z,14.30
2023-02-12T01:26:20.032Z,14.60
2023-02-12T01:28:51.811Z,14.00
2023-02-12T01:31:22.697Z,14.40
2023-02-12T01:33:53.580Z,14.90
2023-02-12T01:36:22.462Z,14.50
2023-02-12T01:38:52.395Z,14.80
2023-02-12T01:41:23.170Z,15.40
2023-02-12T01:44:10.287Z,15.90
2023-02-12T01:46:40.166Z,15.90
2023-02-12T01:49:13.727Z,15.70
2023-02-12T01:51:48.736Z,15.50
2023-02-12T01:54:22.070Z,14.60
2023-02-12T01:56:50.640Z,14.40
2023-02-12T01:59:20.991Z,15.10
2023-02-12T02:01:49.381Z,15.00
2023-02-12T02:04:23.481Z,14.40
2023-02-12T02:06:57.318Z,14.50
2023-02-12T02:09:27.692Z,14.90
2023-02-12T02:12:14.322Z,15.20
2023-02-12T02:14:46.328Z,15.30
2023-02-12T02:17:43.310Z,15.20
2023-02-12T02:20:47.055Z,14.90
2023-02-12T02:23:52.710Z,14.50
2023-02-12T02:26:45.946Z,14.90
2023-02-12T02:29:43.123Z,15.40
2023-02-12T02:32:18.810Z,14.90
2023-02-12T02:34:54.454Z,15.00
2023-02-12T02:37:33.342Z,15.70
2023-02-12T02:40:10.075Z,15.90
2023-02-12T02:42:43.723Z,16.70
2023-02-12T02:45:16.542Z,17.40
2023-02-12T02:47:51.175Z,17.50
2023-02-12T02:50:22.324Z,17.70
2023-02-12T02:52:53.624Z,17.20
2023-02-12T02:55:25.149Z,17.00
2023-02-12T02:57:58.062Z,16.80
2023-02-12T03:00:34.776Z,17.30
2023-02-12T03:03:11.999Z,17.60
2023-02-12T03:05:43.439Z,17.70
2023-02-12T03:08:16.370Z,17.50
2023-02-12T03:10:50.059Z,18.00
2023-02-12T03:13:22.504Z,18.20
2023-02-12T03:15:55.833Z,18.00
2023-02-12T03:18:29.021Z,17.80
2023-02-12T03:21:01.824Z,17.50
2023-02-12T03:23:35.229Z,17.60
2023-02-12T03:26:08.977Z,18.30
2023-02-12T03:28:39.348Z,18.10
2023-02-12T03:31:15.144Z,18.60
2023-02-12T03:34:05.150Z,19.00
2023-02-12T03:36:39.270Z,18.50
2023-02-12T03:39:12.532Z,19.00
2023-02-12T03:41:45.103Z,18.70
2023-02-12T03:44:24.400Z,18.40
2023-02-12T03:47:01.034Z,18.00
2023-02-12T03:49:33.491Z,18.40
2023-02-12T03:52:01.873Z,18.80
2023-02-12T03:54:30.129Z,18.80
2023-02-12T03:57:04.477Z,18.90
2023-02-12T03:59:34.043Z,18.30
2023-02-12T04:02:02.291Z,18.50
2023-02-12T04:04:32.792Z,18.80
2023-02-12T04:07:01.570Z,19.20
2023-02-12T04:09:32.142Z,18.80
2023-02-12T04:12:13.465Z,19.40
2023-02-12T04:14:48.828Z,19.70
2023-02-12T04:17:23.508Z,19.40
2023-02-12T04:20:05.186Z,19.60
2023-02-12T04:22:46.773Z,19.60
2023-02-12T04:25:24.282Z,19.80
2023-02-12T04:27:58.650Z,20.00
2023-02-12T04:30:31.025Z,19.90
2023-02-12T04:33:05.419Z,20.20
2023-02-12T04:35:41.712Z,19.90
2023-02-12T04:38:14.585Z,19.90
2023-02-12T04:40:43.778Z,19.90
2023-02-12T04:43:12.415Z,19.70
2023-02-12T04:45:40.785Z,19.90
2023-02-12T04:48:08.979Z,19.60
2023-02-12T04:50:42.432Z,19.30
2023-02-12T04:53:11.695Z,19.00
2023-02-12T04:55:39.924Z,19.00
2023-02-12T04:58:08.205Z,19.00
2023-02-12T05:00:43.672Z,18.70
2023-02-12T05:03:11.950Z,18.70
2023-02-12T05:05:41.525Z,18.90
2023-02-12T05:08:09.691Z,18.80
2023-02-12T05:10:39.924Z,18.60
2023-02-12T05:13:08.085Z,18.40
2023-02-12T05:15:36.335Z,18.60
2023-02-12T05:18:04.618Z,18.80
2023-02-12T05:20:32.929Z,18.80
2023-02-12T05:23:02.477Z,18.10
2023-02-12T05:25:31.905Z,18.60
2023-02-12T05:28:00.266Z,18.70
2023-02-12T05:30:28.806Z,18.80
2023-02-12T05:32:56.955Z,18.40
2023-02-12T05:35:25.098Z,17.70
2023-02-12T05:37:53.280Z,17.70
2023-02-12T05:40:22.957Z,17.40
2023-02-12T05:42:51.134Z,17.70
2023-02-12T05:45:19.349Z,17.50
2023-02-12T05:47:47.508Z,17.30
2023-02-12T05:50:15.689Z,17.50
2023-02-12T05:52:43.845Z,17.50
2023-02-12T05:55:13.456Z,17.50
2023-02-12T05:57:43.057Z,17.90
2023-02-12T06:00:12.541Z,18.10
2023-02-12T06:02:40.809Z,18.20
2023-02-12T06:05:09.399Z,18.10
2023-02-12T06:07:37.578Z,18.40
2023-02-12T06:10:06.497Z,17.60
2023-02-12T06:12:34.681Z,18.00
2023-02-12T06:15:04.464Z,18.00
2023-02-12T06:17:32.728Z,18.20
2023-02-12T06:20:05.476Z,18.30
2023-02-12T06:22:33.621Z,18.30
2023-02-12T06:25:01.818Z,18.40
2023-02-12T06:27:29.991Z,17.80
2023-02-12T06:29:58.177Z,17.80
2023-02-12T06:32:27.720Z,18.20
2023-02-12T06:34:56.067Z,18.30
2023-02-12T06:37:24.239Z,18.60
2023-02-12T06:39:52.402Z,18.70
2023-02-12T06:42:20.906Z,18.90
2023-02-12T06:44:50.764Z,18.60
2023-02-12T06:47:20.808Z,18.90
2023-02-12T06:49:50.353Z,18.80
2023-02-12T06:52:18.537Z,19.10
2023-02-12T06:54:46.680Z,18.70
2023-02-12T06:57:15.280Z,18.70
2023-02-12T06:59:43.445Z,18.70
2023-02-12T07:02:12.276Z,18.50
2023-02-12T07:04:40.633Z,19.00
2023-02-12T07:07:10.238Z,19.00
2023-02-12T07:09:38.514Z,19.10
2023-02-12T07:12:07.970Z,18.70
2023-02-12T07:14:37.852Z,18.80
2023-02-12T07:17:07.893Z,18.80
2023-02-12T07:19:36.128Z,18.90
2023-02-12T07:22:04.655Z,18.20
2023-02-12T07:24:34.198Z,17.30
2023-02-12T07:27:02.386Z,17.60
2023-02-12T07:29:30.596Z,17.50
2023-02-12T07:32:00.920Z,17.30
2023-02-12T07:34:31.690Z,17.60
2023-02-12T07:36:59.909Z,17.90
2023-02-12T07:39:28.143Z,18.10
2023-02-12T07:41:58.224Z,18.40
2023-02-12T07:44:26.430Z,18.20
2023-02-12T07:46:56.932Z,18.30
2023-02-12T07:49:25.559Z,18.50
2023-02-12T07:51:55.519Z,18.60
2023-02-12T07:54:23.875Z,18.60
2023-02-12T07:56:52.181Z,18.50
2023-02-12T07:59:21.784Z,18.50
2023-02-12T08:01:51.859Z,18.50
2023-02-12T08:04:22.031Z,18.50
2023-02-12T08:06:55.025Z,18.30
2023-02-12T08:09:25.983Z,18.00
2023-02-12T08:11:54.912Z,18.20
2023-02-12T08:14:24.591Z,17.80
2023-02-12T08:16:53.033Z,18.10
2023-02-12T08:19:25.983Z,18.30
2023-02-12T08:21:56.155Z,18.40
2023-02-12T08:24:24.785Z,18.00
2023-02-12T08:26:53.289Z,18.10
2023-02-12T08:29:24.159Z,18.10
2023-02-12T08:31:58.656Z,18.20
2023-02-12T08:34:29.083Z,18.00
2023-02-12T08:36:58.277Z,18.00
2023-02-12T08:39:28.670Z,17.90
2023-02-12T08:41:59.951Z,17.70
2023-02-12T08:44:28.509Z,17.80
2023-02-12T08:46:58.111Z,18.00
2023-02-12T08:49:33.277Z,17.80
2023-02-12T08:52:08.307Z,18.00
2023-02-12T08:54:36.998Z,18.10
2023-02-12T08:57:05.323Z,18.50
2023-02-12T08:59:33.787Z,18.20
2023-02-12T09:02:08.629Z,18.10
2023-02-12T09:04:37.100Z,17.00
2023-02-12T09:07:10.388Z,16.80
2023-02-12T09:09:38.946Z,16.40
2023-02-12T09:12:07.324Z,16.50
2023-02-12T09:14:35.611Z,17.30
2023-02-12T09:17:05.237Z,17.60
2023-02-12T09:19:33.670Z,17.30
2023-02-12T09:22:01.837Z,17.30
2023-02-12T09:24:30.024Z,17.60
2023-02-12T09:26:58.253Z,17.50
2023-02-12T09:29:26.486Z,17.60
2023-02-12T09:31:55.100Z,17.50
2023-02-12T09:34:24.718Z,17.80
2023-02-12T09:36:52.910Z,17.60
2023-02-12T09:39:21.130Z,17.90
2023-02-12T09:42:17.722Z,18.10
2023-02-12T09:44:51.976Z,18.10
2023-02-12T09:47:26.868Z,17.70
2023-02-12T09:50:32.793Z,17.60
2023-02-12T09:53:01.792Z,17.50
2023-02-12T09:55:32.203Z,17.40
2023-02-12T09:58:01.991Z,17.50
2023-02-12T10:00:33.099Z,17.50
2023-02-12T10:03:06.664Z,17.40
2023-02-12T10:05:41.874Z,17.50
2023-02-12T10:08:32.803Z,18.10
2023-02-12T10:11:17.337Z,17.70
2023-02-12T10:13:56.173Z,17.00
2023-02-12T10:16:40.857Z,17.20
2023-02-12T10:19:23.834Z,17.30
2023-02-12T10:22:01.974Z,17.20
2023-02-12T10:24:48.238Z,17.70
2023-02-12T10:27:18.257Z,18.00
2023-02-12T10:29:48.346Z,17.80
2023-02-12T10:32:25.165Z,17.80
2023-02-12T10:34:54.821Z,18.00
2023-02-12T10:37:33.419Z,18.00
2023-02-12T10:40:07.178Z,18.00
2023-02-12T10:42:41.792Z,17.90
2023-02-12T10:45:18.324Z,18.10
2023-02-12T10:47:48.243Z,18.10
2023-02-12T10:50:25.659Z,18.00
2023-02-12T10:53:00.803Z,18.00
2023-02-12T10:55:31.228Z,18.20
2023-02-12T10:58:01.226Z,18.40
2023-02-12T11:00:33.022Z,18.40
2023-02-12T11:03:04.726Z,18.50
2023-02-12T11:05:35.948Z,17.90
2023-02-12T11:08:06.561Z,18.10
2023-02-12T11:10:39.192Z,17.90
2023-02-12T11:13:23.313Z,18.30
2023-02-12T11:15:51.949Z,18.50
2023-02-12T11:18:25.986Z,18.60
2023-02-12T11:20:56.933Z,18.30
2023-02-12T11:23:29.361Z,18.40
2023-02-12T11:26:01.307Z,18.40
2023-02-12T11:28:30.371Z,18.90
2023-02-12T11:31:01.627Z,19.10
2023-02-12T11:33:35.348Z,19.60
2023-02-12T11:36:08.950Z,19.10
2023-02-12T11:38:41.322Z,19.10
2023-02-12T11:41:24.963Z,19.40
2023-02-12T11:43:53.983Z,19.40
2023-02-12T11:46:24.667Z,19.60
2023-02-12T11:48:54.082Z,19.50
2023-02-12T11:51:29.237Z,19.40
2023-02-12T11:54:01.901Z,19.50
2023-02-12T11:56:42.764Z,19.80
2023-02-12T11:59:22.536Z,19.90
2023-02-12T12:01:55.539Z,19.90
2023-02-12T12:04:26.976Z,19.60
2023-02-12T12:07:01.145Z,20.00
2023-02-12T12:09:38.224Z,20.20
2023-02-12T12:12:17.235Z,20.20
2023-02-12T12:15:07.433Z,19.90
2023-02-12T12:18:01.076Z,19.90
2023-02-12T12:20:37.877Z,19.60
2023-02-12T12:23:12.202Z,18.80
2023-02-12T12:25:47.463Z,18.20
2023-02-12T12:28:31.556Z,18.20
2023-02-12T12:31:07.370Z,18.60
2023-02-12T12:33:41.775Z,19.30
2023-02-12T12:36:46.991Z,18.90
2023-02-12T12:39:28.076Z,19.80
2023-02-12T12:42:28.383Z,20.50
2023-02-12T12:45:18.231Z,20.70
2023-02-12T12:48:01.359Z,20.20
2023-02-12T12:50:49.857Z,20.50
2023-02-12T12:53:29.874Z,21.00
2023-02-12T12:56:20.776Z,20.00
2023-02-12T12:59:18.064Z,19.80
2023-02-12T13:02:04.809Z,20.70
2023-02-12T13:04:53.156Z,20.30
2023-02-12T13:07:39.596Z,20.50
2023-02-12T13:10:20.914Z,20.40
2023-02-12T13:13:06.991Z,20.40
2023-02-12T13:15:43.264Z,20.40
2023-02-12T13:18:20.460Z,20.70
2023-02-12T13:20:58.891Z,21.20
2023-02-12T13:23:36.760Z,20.90
2023-02-12T13:26:13.467Z,20.90
2023-02-12T13:28:48.771Z,20.90
2023-02-12T13:31:33.700Z,20.00
2023-02-12T13:34:05.845Z,19.70
2023-02-12T13:36:37.073Z,18.90
2023-02-12T13:39:11.332Z,18.10
2023-02-12T13:41:40.817Z,17.90
2023-02-12T13:44:17.604Z,17.80
2023-02-12T13:46:58.507Z,17.40
2023-02-12T13:49:40.413Z,17.30
2023-02-12T13:52:15.304Z,17.00
2023-02-12T13:54:53.448Z,16.50
2023-02-12T13:57:22.587Z,16.70
2023-02-12T13:59:53.636Z,16.40
2023-02-12T14:02:52.057Z,16.10
2023-02-12T14:05:29.611Z,15.90
2023-02-12T14:08:00.692Z,16.10
2023-02-12T14:10:32.698Z,17.00
2023-02-12T14:13:18.689Z,17.40
2023-02-12T14:15:52.371Z,17.40
2023-02-12T14:18:31.675Z,17.50
2023-02-12T14:21:43.463Z,17.30
2023-02-12T14:24:53.056Z,17.80
2023-02-12T14:27:35.055Z,17.10
2023-02-12T14:30:25.857Z,17.30
2023-02-12T14:33:13.274Z,17.70
2023-02-12T14:35:43.703Z,17.80
2023-02-12T14:38:56.757Z,18.10
2023-02-12T14:41:37.531Z,17.70
2023-02-12T14:44:42.290Z,17.90
2023-02-12T14:47:29.079Z,17.50
2023-02-12T14:50:02.447Z,17.30
2023-02-12T14:52:39.120Z,17.50
2023-02-12T14:55:19.519Z,17.30
2023-02-12T14:57:48.401Z,18.00
2023-02-12T15:00:26.519Z,17.80
2023-02-12T15:03:01.183Z,17.30
2023-02-12T15:05:38.131Z,17.20
2023-02-12T15:08:13.085Z,16.80
2023-02-12T15:10:47.233Z,16.30
2023-02-12T15:13:25.413Z,15.70
2023-02-12T15:15:56.841Z,15.80
2023-02-12T15:18:30.664Z,16.00
2023-02-12T15:21:05.507Z,16.00
2023-02-12T15:23:39.094Z,16.30
2023-02-12T15:26:13.208Z,15.80
2023-02-12T15:28:42.466Z,15.70
2023-02-12T15:31:11.794Z,16.00
2023-02-12T15:33:47.172Z,16.50
2023-02-12T15:36:19.739Z,16.10
2023-02-12T15:38:53.377Z,16.00
2023-02-12T15:41:30.564Z,15.90
2023-02-12T15:43:59.857Z,15.70
2023-02-12T15:46:28.474Z,15.40
2023-02-12T15:48:56.973Z,15.30
2023-02-12T15:51:30.784Z,15.20
2023-02-12T15:54:01.572Z,15.10
2023-02-12T15:56:31.906Z,15.00
2023-02-12T15:59:02.383Z,15.40
2023-02-12T16:01:32.984Z,15.40
2023-02-12T16:04:03.265Z,15.90
2023-02-12T16:06:34.625Z,16.20
2023-02-12T16:09:07.851Z,16.70
2023-02-12T16:11:37.904Z,16.90
2023-02-12T16:14:10.010Z,17.00
2023-02-12T16:16:45.988Z,17.10
2023-02-12T16:19:22.626Z,16.30
2023-02-12T16:21:54.383Z,16.40
2023-02-12T16:24:28.977Z,16.70
2023-02-12T16:26:58.536Z,16.40
2023-02-12T16:29:26.968Z,16.30
2023-02-12T16:31:57.839Z,16.20
2023-02-12T16:34:32.059Z,15.70
2023-02-12T16:37:03.355Z,15.90
2023-02-12T16:40:08.737Z,15.80
2023-02-12T16:42:38.757Z,16.20
2023-02-12T16:45:35.927Z,16.20
2023-02-12T16:48:12.239Z,16.00
2023-02-12T16:50:47.973Z,15.90
2023-02-12T16:53:47.293Z,16.00
2023-02-12T16:56:18.844Z,15.80
2023-02-12T16:58:50.714Z,16.10
2023-02-12T17:01:23.777Z,16.40
2023-02-12T17:03:53.003Z,16.40
2023-02-12T17:06:23.025Z,16.20
2023-02-12T17:08:51.550Z,16.40
2023-02-12T17:11:20.309Z,16.40
2023-02-12T17:13:51.639Z,16.40
2023-02-12T17:16:31.144Z,16.80
2023-02-12T17:19:00.114Z,16.90
2023-02-12T17:21:32.341Z,17.10
2023-02-12T17:24:00.588Z,16.80
2023-02-12T17:26:28.766Z,16.70
2023-02-12T17:29:05.165Z,16.50
2023-02-12T17:31:33.841Z,16.40
2023-02-12T17:34:02.644Z,16.40
2023-02-12T17:36:30.861Z,16.40
2023-02-12T17:38:59.029Z,16.50
2023-02-12T17:41:27.335Z,16.80
2023-02-12T17:43:55.508Z,16.70
2023-02-12T17:46:29.992Z,16.50
2023-02-12T17:48:58.666Z,16.40
2023-02-12T17:51:27.160Z,16.50
2023-02-12T17:53:55.421Z,16.70
2023-02-12T17:56:25.689Z,16.60
2023-02-12T17:58:54.481Z,16.50
2023-02-12T18:01:23.970Z,16.30
2023-02-12T18:03:55.926Z,16.70
2023-02-12T18:06:26.449Z,16.70
2023-02-12T18:08:55.479Z,16.60
2023-02-12T18:11:25.266Z,16.70
2023-02-12T18:13:55.714Z,16.40
2023-02-12T18:16:25.366Z,16.20
2023-02-12T18:18:57.066Z,16.20
2023-02-12T18:21:25.309Z,16.40
2023-02-12T18:23:56.179Z,16.30
2023-02-12T18:26:24.656Z,16.20
2023-02-12T18:28:54.060Z,16.20
2023-02-12T18:31:24.043Z,16.30
2023-02-12T18:33:55.710Z,16.50
2023-02-12T18:36:24.498Z,16.40
2023-02-12T18:38:53.568Z,16.50
2023-02-12T18:41:24.165Z,16.60
2023-02-12T18:43:53.301Z,16.80
2023-02-12T18:46:24.285Z,17.00
2023-02-12T18:48:55.812Z,17.10
2023-02-12T18:51:28.835Z,17.40
2023-02-12T18:54:01.225Z,17.70
2023-02-12T18:56:30.721Z,17.70
2023-02-12T18:59:00.491Z,17.50
2023-02-12T19:01:29.628Z,16.50
2023-02-12T19:04:00.146Z,16.90
2023-02-12T19:06:30.612Z,17.10
2023-02-12T19:08:59.666Z,17.00
2023-02-12T19:11:29.069Z,17.30
2023-02-12T19:13:57.356Z,17.50
2023-02-12T19:16:26.348Z,17.50
2023-02-12T19:19:01.086Z,17.10
2023-02-12T19:21:35.242Z,17.50
2023-02-12T19:24:05.325Z,17.20
2023-02-12T19:26:34.810Z,17.20
2023-02-12T19:29:04.174Z,17.50
2023-02-12T19:31:36.823Z,17.60
2023-02-12T19:34:07.184Z,17.60
2023-02-12T19:36:39.733Z,17.70
2023-02-12T19:39:08.557Z,17.80
2023-02-12T19:41:40.822Z,17.90
2023-02-12T19:44:20.246Z,17.80
2023-02-12T19:46:49.117Z,17.90
2023-02-12T19:49:19.601Z,17.80
2023-02-12T19:51:49.908Z,17.60
2023-02-12T19:54:19.602Z,17.40
2023-02-12T19:56:48.523Z,17.20
2023-02-12T19:59:18.400Z,17.30
2023-02-12T20:01:47.702Z,17.30
2023-02-12T20:04:20.260Z,17.60
2023-02-12T20:06:50.910Z,17.70
2023-02-12T20:09:23.423Z,17.40
2023-02-12T20:11:54.880Z,17.40
2023-02-12T20:14:23.074Z,17.40
2023-02-12T20:16:51.755Z,17.50
2023-02-12T20:19:22.996Z,17.60
2023-02-12T20:21:55.867Z,17.80
2023-02-12T20:24:29.579Z,17.90
2023-02-12T20:26:58.875Z,17.90
2023-02-12T20:29:27.706Z,17.70
2023-02-12T20:31:58.592Z,17.60
2023-02-12T20:34:26.860Z,17.50
2023-02-12T20:36:56.401Z,17.40
2023-02-12T20:39:24.672Z,17.40
2023-02-12T20:41:52.864Z,17.40
2023-02-12T20:44:22.775Z,17.30
2023-02-12T20:46:56.120Z,17.50
2023-02-12T20:49:25.812Z,17.20
2023-02-12T20:51:54.065Z,17.00
2023-02-12T20:54:23.593Z,16.90
2023-02-12T20:56:52.268Z,17.00
2023-02-12T20:59:20.670Z,16.70
2023-02-12T21:01:48.907Z,16.60
2023-02-12T21:04:20.613Z,16.70
2023-02-12T21:06:49.327Z,16.70
2023-02-12T21:09:20.216Z,16.80
2023-02-12T21:11:49.956Z,16.60
2023-02-12T21:14:22.556Z,16.90
2023-02-12T21:16:51.860Z,16.80
2023-02-12T21:19:21.524Z,17.00
2023-02-12T21:21:49.944Z,17.10
2023-02-12T21:24:20.163Z,17.30
2023-02-12T21:26:51.732Z,17.30
2023-02-12T21:29:20.447Z,17.30
2023-02-12T21:31:50.322Z,17.20
2023-02-12T21:34:20.918Z,17.50
2023-02-12T21:36:50.537Z,17.60
2023-02-12T21:39:24.658Z,17.50
2023-02-12T21:41:56.321Z,17.60
2023-02-12T21:44:26.188Z,17.90
2023-02-12T21:46:55.222Z,18.00
2023-02-12T21:49:28.844Z,18.20
2023-02-12T21:51:59.403Z,18.30
2023-02-12T21:54:28.945Z,18.00
2023-02-12T21:56:58.980Z,17.80
2023-02-12T21:59:29.025Z,18.00
2023-02-12T22:01:59.056Z,18.20
2023-02-12T22:04:27.773Z,18.20
2023-02-12T22:07:02.931Z,18.40
2023-02-12T22:09:31.140Z,18.40
2023-02-12T22:12:00.745Z,18.50
2023-02-12T22:14:29.039Z,18.50
2023-02-12T22:16:57.197Z,18.40
2023-02-12T22:19:25.509Z,18.50
2023-02-12T22:21:53.903Z,18.40
2023-02-12T22:24:22.681Z,18.60
2023-02-12T22:26:50.889Z,18.60
2023-02-12T22:29:22.823Z,18.50
2023-02-12T22:31:51.236Z,18.50
2023-02-12T22:34:19.997Z,18.70
2023-02-12T22:36:49.867Z,18.70
2023-02-12T22:39:18.590Z,18.80
2023-02-12T22:41:46.910Z,18.90
2023-02-12T22:44:16.474Z,18.80
2023-02-12T22:46:46.231Z,18.90
2023-02-12T22:49:16.619Z,19.00
2023-02-12T22:51:44.977Z,19.00
2023-02-12T22:54:16.601Z,19.10
2023-02-12T22:56:45.535Z,19.10
2023-02-12T22:59:14.136Z,19.10
2023-02-12T23:01:44.943Z,19.10
2023-02-12T23:04:18.201Z,19.10
2023-02-12T23:06:46.840Z,19.00
2023-02-12T23:09:20.179Z,19.00
2023-02-12T23:11:50.467Z,18.90
2023-02-12T23:14:19.459Z,18.70
2023-02-12T23:16:49.281Z,18.50
2023-02-12T23:19:17.596Z,18.20
2023-02-12T23:21:45.818Z,17.60
2023-02-12T23:24:15.502Z,17.90
2023-02-12T23:26:44.185Z,18.10
2023-02-12T23:29:12.672Z,18.10
2023-02-12T23:31:41.212Z,18.20
2023-02-12T23:34:10.928Z,18.30
2023-02-12T23:36:39.186Z,18.40
2023-02-12T23:39:07.365Z,18.40
2023-02-12T23:41:37.892Z,18.50
2023-02-12T23:44:06.488Z,18.60
2023-02-12T23:46:34.679Z,18.50
2023-02-12T23:49:02.931Z,18.50
2023-02-12T23:51:32.932Z,18.30
2023-02-12T23:54:01.151Z,17.50
2023-02-12T23:56:29.564Z,17.00
2023-02-12T23:58:58.239Z,17.10
